SondeTracker

Meteorological Radiosondes Database

Operations

Sounding was ended - last measurement: 2023-03-29 12:50:51z

MAP
About Radiosonde

Number: D22053612 (22053612)

Launch Site: Salt Lake City [UT] (US)

Type: DFM17

AUX: NO

Frequency: 405.010 MHz

Max Speed: 174 km/h at 11585 m

Average Speed: 80.66 km/h

Max Altitude: 31680 m

Average Ascent Speed: 5.35 m/s

Average Descent Speed: 8.38 m/s

Status: UNKNOWN

Status Changes
Launch Site Type AUX Frequency Status Finder Landing Point Description Changes made by
APRS Statistics

Received Frames: 79

First Frame [UTC]: 2023-03-29 11:05:16z

Last Frame [UTC]: 2023-03-29 12:50:51z

Receivers: N7ZDX-1

Flight Time: 01:45:35 h

Distance From First Measurement: 106.63 km

Nearest City: Evanston [WY] (US) [15.41 km]

Nearest Hunter: mongolw8 [96.63 km]

Ground Altitude: 2335 m

Distance from QTH: 0.00 km

APRS Data
Receiver Number Date/Time [UTC] φ λ Course [°] Speed [km/h] Altitude [m] Description
N7ZDX-1D220536122023-03-29 12:50:5141.1894-110.807182925285Clb=-10.4m/s t=-54.9C h=-1.0% p=-1.0hPa 405.010 MHz Type=DFM17 ser=22053612 Radiosonde
N7ZDX-1D220536122023-03-29 12:48:4741.1898-110.8073543025926Clb=-11.1m/s t=-53.3C h=-1.0% p=-1.0hPa 405.010 MHz Type=DFM17 ser=22053612 Radiosonde
N7ZDX-1D220536122023-03-29 12:46:4441.188-110.81672026625Clb=-12.1m/s t=-51.9C h=-1.0% p=-1.0hPa 405.010 MHz Type=DFM17 ser=22053612 Radiosonde
N7ZDX-1D220536122023-03-29 12:44:3641.1862-110.812552027377Clb=-14.9m/s t=-51.8C h=-1.0% p=-1.0hPa 405.010 MHz Type=DFM17 ser=22053612 Radiosonde
N7ZDX-1D220536122023-03-29 12:42:2741.1861-110.815312028672Clb=-12.6m/s t=-48.4C h=-1.0% p=-1.0hPa 405.010 MHz Type=DFM17 ser=22053612 Radiosonde
N7ZDX-1D220536122023-03-29 12:40:2141.1852-110.818623530095Clb=-26.3m/s t=-47.9C h=-1.0% p=-1.0hPa 405.010 MHz Type=DFM17 ser=22053612 Radiosonde
N7ZDX-1D220536122023-03-29 12:38:0841.1851-110.829909831680Clb=2.1m/s t=-45.3C h=-1.0% p=-1.0hPa 405.010 MHz Type=DFM17 ser=22053612 Radiosonde
N7ZDX-1D220536122023-03-29 12:36:0741.186-110.842982231329Clb=2.4m/s t=-47.7C h=-1.0% p=-1.0hPa 405.010 MHz Type=DFM17 ser=22053612 Radiosonde
N7ZDX-1D220536122023-03-29 12:34:4941.1842-110.853738730970Clb=3.1m/s t=-48.4C h=-1.0% p=-1.0hPa 405.010 MHz Type=DFM17 ser=22053612 Radiosonde
N7ZDX-1D220536122023-03-29 12:34:3641.1812-110.861211730589Clb=6.6m/s t=-49.1C h=-1.0% p=-1.0hPa 405.010 MHz Type=DFM17 ser=22053612 Radiosonde
N7ZDX-1D220536122023-03-29 12:33:1741.1806-110.868885030230Clb=6.1m/s t=-48.2C h=-1.0% p=-1.0hPa 405.010 MHz Type=DFM17 ser=22053612 Radiosonde
N7ZDX-1D220536122023-03-29 12:31:0241.1726-110.905882826578Clb=6.5m/s t=-52.1C h=-1.0% p=-1.0hPa 405.010 MHz Type=DFM17 ser=22053612 Radiosonde
N7ZDX-1D220536122023-03-29 12:28:2141.1702-110.909443726221Clb=7.1m/s t=-54.2C h=-1.0% p=-1.0hPa 405.010 MHz Type=DFM17 ser=22053612 Radiosonde
N7ZDX-1D220536122023-03-29 12:26:1841.1682-110.9082561125859Clb=6.8m/s t=-54.4C h=-1.0% p=-1.0hPa 405.010 MHz Type=DFM17 ser=22053612 Radiosonde
N7ZDX-1D220536122023-03-29 12:24:0841.1682-110.9081001325500Clb=5.9m/s t=-54.3C h=-1.0% p=-1.0hPa 405.010 MHz Type=DFM17 ser=22053612 Radiosonde
N7ZDX-1D220536122023-03-29 12:19:5041.1687-110.911602424802Clb=6.0m/s t=-55.5C h=-1.0% p=-1.0hPa 405.010 MHz Type=DFM17 ser=22053612 Radiosonde
N7ZDX-1D220536122023-03-29 12:17:3041.1672-110.913252024446Clb=6.7m/s t=-55.4C h=-1.0% p=-1.0hPa 405.010 MHz Type=DFM17 ser=22053612 Radiosonde
N7ZDX-1D220536122023-03-29 12:15:4441.1658-110.914314624091Clb=7.0m/s t=-54.8C h=-1.0% p=-1.0hPa 405.010 MHz Type=DFM17 ser=22053612 Radiosonde
N7ZDX-1D220536122023-03-29 12:14:3241.1651-110.91782223749Clb=5.8m/s t=-54.2C h=-1.0% p=-1.0hPa 405.009 MHz Type=DFM17 ser=22053612 Radiosonde
N7ZDX-1D220536122023-03-29 12:13:2741.1656-110.9231313523422Clb=5.4m/s t=-55.1C h=-1.0% p=-1.0hPa 405.010 MHz Type=DFM17 ser=22053612 Radiosonde
N7ZDX-1D220536122023-03-29 12:13:1541.1628-110.971925420836Clb=4.3m/s t=-56.4C h=-1.0% p=-1.0hPa 405.010 MHz Type=DFM17 ser=22053612 Radiosonde
N7ZDX-1D220536122023-03-29 12:11:2641.1615-110.98714820514Clb=5.3m/s t=-58.7C h=-1.0% p=-1.0hPa 405.010 MHz Type=DFM17 ser=22053612 Radiosonde
N7ZDX-1D220536122023-03-29 12:09:2041.1583-110.99533920171Clb=5.6m/s t=-57.6C h=-1.0% p=-1.0hPa 405.010 MHz Type=DFM17 ser=22053612 Radiosonde
N7ZDX-1D220536122023-03-29 12:07:2641.1566-110.997893319865Clb=5.5m/s t=-57.4C h=-1.0% p=-1.0hPa 405.010 MHz Type=DFM17 ser=22053612 Radiosonde
N7ZDX-1D220536122023-03-29 12:05:5041.1573-111.009837219546Clb=4.6m/s t=-58.7C h=-1.0% p=-1.0hPa 405.010 MHz Type=DFM17 ser=22053612 Radiosonde
N7ZDX-1D220536122023-03-29 12:03:5941.1583-111.024916919254Clb=5.3m/s t=-57.6C h=-1.0% p=-1.0hPa 405.010 MHz Type=DFM17 ser=22053612 Radiosonde
N7ZDX-1D220536122023-03-29 12:02:0041.1567-111.04729318959Clb=4.8m/s t=-56.7C h=-1.0% p=-1.0hPa 405.010 MHz Type=DFM17 ser=22053612 Radiosonde
N7ZDX-1D220536122023-03-29 12:00:0741.1527-111.057668918674Clb=5.9m/s t=-56.8C h=-1.0% p=-1.0hPa 405.010 MHz Type=DFM17 ser=22053612 Radiosonde
N7ZDX-1D220536122023-03-29 11:58:0841.148-111.075788318392Clb=3.9m/s t=-58.3C h=-1.0% p=-1.0hPa 405.010 MHz Type=DFM17 ser=22053612 Radiosonde
N7ZDX-1D220536122023-03-29 11:56:1541.1466-111.0948610718120Clb=5.0m/s t=-59.9C h=-1.0% p=-1.0hPa 405.010 MHz Type=DFM17 ser=22053612 Radiosonde
N7ZDX-1D220536122023-03-29 11:54:5741.1458-111.134918517519Clb=4.1m/s t=-58.0C h=-1.0% p=-1.0hPa 405.010 MHz Type=DFM17 ser=22053612 Radiosonde
N7ZDX-1D220536122023-03-29 11:54:4441.1435-111.153779617217Clb=4.1m/s t=-57.4C h=-1.0% p=-1.0hPa 405.010 MHz Type=DFM17 ser=22053612 Radiosonde
N7ZDX-1D220536122023-03-29 11:54:0141.1411-111.171807816949Clb=4.3m/s t=-58.0C h=-1.0% p=-1.0hPa 405.010 MHz Type=DFM17 ser=22053612 Radiosonde
N7ZDX-1D220536122023-03-29 11:53:4041.1413-111.188937616653Clb=4.8m/s t=-56.4C h=-1.0% p=-1.0hPa 405.010 MHz Type=DFM17 ser=22053612 Radiosonde
N7ZDX-1D220536122023-03-29 11:53:2341.1394-111.206819416384Clb=3.5m/s t=-55.9C h=-1.0% p=-1.0hPa 405.010 MHz Type=DFM17 ser=22053612 Radiosonde
N7ZDX-1D220536122023-03-29 11:52:5341.1346-111.2266410216109Clb=4.4m/s t=-57.9C h=-1.0% p=-1.0hPa 405.010 MHz Type=DFM17 ser=22053612 Radiosonde
N7ZDX-1D220536122023-03-29 11:50:5841.1293-111.245728915823Clb=4.6m/s t=-59.5C h=-1.0% p=-1.0hPa 405.010 MHz Type=DFM17 ser=22053612 Radiosonde
N7ZDX-1D220536122023-03-29 11:49:1441.1256-111.263739815506Clb=6.2m/s t=-60.2C h=-1.0% p=-1.0hPa 405.010 MHz Type=DFM17 ser=22053612 Radiosonde
N7ZDX-1D220536122023-03-29 11:47:2341.1214-111.281719115157Clb=4.9m/s t=-60.5C h=-1.0% p=-1.0hPa 405.010 MHz Type=DFM17 ser=22053612 Radiosonde
N7ZDX-1D220536122023-03-29 11:45:4041.1157-111.298639614831Clb=4.8m/s t=-61.1C h=-1.0% p=-1.0hPa 405.010 MHz Type=DFM17 ser=22053612 Radiosonde
N7ZDX-1D220536122023-03-29 11:43:5641.1112-111.315709314529Clb=4.1m/s t=-59.5C h=-1.0% p=-1.0hPa 405.010 MHz Type=DFM17 ser=22053612 Radiosonde
N7ZDX-1D220536122023-03-29 11:42:5541.1078-111.3357911314231Clb=4.6m/s t=-60.1C h=-1.0% p=-1.0hPa 405.010 MHz Type=DFM17 ser=22053612 Radiosonde
N7ZDX-1D220536122023-03-29 11:41:5441.1047-111.3577711113943Clb=4.6m/s t=-59.7C h=-1.0% p=-1.0hPa 405.010 MHz Type=DFM17 ser=22053612 Radiosonde
N7ZDX-1D220536122023-03-29 11:41:3941.0991-111.386611513663Clb=3.5m/s t=-60.3C h=-1.0% p=-1.0hPa 405.010 MHz Type=DFM17 ser=22053612 Radiosonde
N7ZDX-1D220536122023-03-29 11:41:0041.0938-111.4037514113372Clb=4.5m/s t=-61.8C h=-1.0% p=-1.0hPa 405.010 MHz Type=DFM17 ser=22053612 Radiosonde
N7ZDX-1D220536122023-03-29 11:40:4041.0878-111.4296913113057Clb=6.5m/s t=-62.2C h=-1.0% p=-1.0hPa 405.010 MHz Type=DFM17 ser=22053612 Radiosonde
N7ZDX-1D220536122023-03-29 11:39:0241.0816-111.4526712012760Clb=4.9m/s t=-63.7C h=-1.0% p=-1.0hPa 405.010 MHz Type=DFM17 ser=22053612 Radiosonde
N7ZDX-1D220536122023-03-29 11:37:1941.0726-111.4746313312498Clb=4.1m/s t=-65.3C h=-1.0% p=-1.0hPa 405.010 MHz Type=DFM17 ser=22053612 Radiosonde
N7ZDX-1D220536122023-03-29 11:35:5041.0645-111.4987013312230Clb=5.2m/s t=-66.7C h=-1.0% p=-1.0hPa 405.010 MHz Type=DFM17 ser=22053612 Radiosonde
N7ZDX-1D220536122023-03-29 11:35:4441.0577-111.5257515211944Clb=5.3m/s t=-64.6C h=-1.0% p=-1.0hPa 405.010 MHz Type=DFM17 ser=22053612 Radiosonde
N7ZDX-1D220536122023-03-29 11:34:4741.0493-111.5556517411585Clb=4.2m/s t=-62.7C h=-1.0% p=-1.0hPa 405.010 MHz Type=DFM17 ser=22053612 Radiosonde
N7ZDX-1D220536122023-03-29 11:33:1741.0388-111.5876317211371Clb=4.1m/s t=-61.9C h=-1.0% p=-1.0hPa 405.010 MHz Type=DFM17 ser=22053612 Radiosonde
N7ZDX-1D220536122023-03-29 11:31:4441.0277-111.6176616311130Clb=3.9m/s t=-61.1C h=-1.0% p=-1.0hPa 405.010 MHz Type=DFM17 ser=22053612 Radiosonde
N7ZDX-1D220536122023-03-29 11:31:0141.0187-111.6456814810867Clb=5.8m/s t=-59.4C h=-1.0% p=-1.0hPa 405.010 MHz Type=DFM17 ser=22053612 Radiosonde
N7ZDX-1D220536122023-03-29 11:30:4341.0092-111.6716215210499Clb=7.7m/s t=-57.2C h=-1.0% p=-1.0hPa 405.010 MHz Type=DFM17 ser=22053612 Radiosonde
N7ZDX-1D220536122023-03-29 11:29:0640.9993-111.6966013510086Clb=5.0m/s t=-53.5C h=-1.0% p=-1.0hPa 405.010 MHz Type=DFM17 ser=22053612 Radiosonde
N7ZDX-1D220536122023-03-29 11:27:3940.9886-111.718581509789Clb=2.4m/s t=-51.2C h=-1.0% p=-1.0hPa 405.010 MHz Type=DFM17 ser=22053612 Radiosonde
N7ZDX-1D220536122023-03-29 11:26:3840.9779-111.739441249439Clb=6.1m/s t=-48.5C h=-1.0% p=-1.0hPa 405.010 MHz Type=DFM17 ser=22053612 Radiosonde
N7ZDX-1D220536122023-03-29 11:25:5940.9674-111.757551209067Clb=6.2m/s t=-45.2C h=-1.0% p=-1.0hPa 405.010 MHz Type=DFM17 ser=22053612 Radiosonde
N7ZDX-1D220536122023-03-29 11:24:5840.9576-111.774631118669Clb=7.9m/s t=-41.6C h=-1.0% p=-1.0hPa 405.010 MHz Type=DFM17 ser=22053612 Radiosonde
N7ZDX-1D220536122023-03-29 11:23:3540.9486-111.7951948297Clb=6.2m/s t=-38.4C h=-1.0% p=-1.0hPa 405.010 MHz Type=DFM17 ser=22053612 Radiosonde
N7ZDX-1D220536122023-03-29 11:22:3440.9392-111.804451077960Clb=6.2m/s t=-35.8C h=-1.0% p=-1.0hPa 405.010 MHz Type=DFM17 ser=22053612 Radiosonde
N7ZDX-1D220536122023-03-29 11:21:3340.9293-111.81959987648Clb=6.7m/s t=-33.2C h=-1.0% p=-1.0hPa 405.010 MHz Type=DFM17 ser=22053612 Radiosonde
N7ZDX-1D220536122023-03-29 11:20:4040.9192-111.83538987326Clb=6.0m/s t=-30.8C h=-1.0% p=-1.0hPa 405.010 MHz Type=DFM17 ser=22053612 Radiosonde
N7ZDX-1D220536122023-03-29 11:19:3140.9097-111.85451076975Clb=6.9m/s t=-28.4C h=-1.0% p=-1.0hPa 405.010 MHz Type=DFM17 ser=22053612 Radiosonde
N7ZDX-1D220536122023-03-29 11:18:3040.9005-111.86551876617Clb=6.8m/s t=-26.2C h=-1.0% p=-1.0hPa 405.010 MHz Type=DFM17 ser=22053612 Radiosonde
N7ZDX-1D220536122023-03-29 11:17:2940.8918-111.87840726218Clb=6.7m/s t=-24.6C h=-1.0% p=-1.0hPa 405.010 MHz Type=DFM17 ser=22053612 Radiosonde
N7ZDX-1D220536122023-03-29 11:16:2840.8834-111.88733615824Clb=6.0m/s t=-21.8C h=-1.0% p=-1.0hPa 405.010 MHz Type=DFM17 ser=22053612 Radiosonde
N7ZDX-1D220536122023-03-29 11:15:2740.8747-111.89735655424Clb=5.0m/s t=-19.1C h=-1.0% p=-1.0hPa 405.010 MHz Type=DFM17 ser=22053612 Radiosonde
N7ZDX-1D220536122023-03-29 11:14:2640.8661-111.90731745065Clb=7.1m/s t=-16.8C h=-1.0% p=-1.0hPa 405.010 MHz Type=DFM17 ser=22053612 Radiosonde
N7ZDX-1D220536122023-03-29 11:13:2540.8578-111.91527464692Clb=5.9m/s t=-14.5C h=-1.0% p=-1.0hPa 405.010 MHz Type=DFM17 ser=22053612 Radiosonde
N7ZDX-1D220536122023-03-29 11:12:2440.8498-111.92344764327Clb=6.2m/s t=-14.3C h=-1.0% p=-1.0hPa 405.010 MHz Type=DFM17 ser=22053612 Radiosonde
N7ZDX-1D220536122023-03-29 11:11:2340.842-111.93136693963Clb=5.1m/s t=-11.4C h=-1.0% p=-1.0hPa 405.010 MHz Type=DFM17 ser=22053612 Radiosonde
N7ZDX-1D220536122023-03-29 11:10:2140.8342-111.93932803600Clb=5.5m/s t=-8.1C h=-1.0% p=-1.0hPa 405.010 MHz Type=DFM17 ser=22053612 Radiosonde
N7ZDX-1D220536122023-03-29 11:09:2040.8243-111.94728743214Clb=5.0m/s t=-5.6C h=-1.0% p=-1.0hPa 405.010 MHz Type=DFM17 ser=22053612 Radiosonde
N7ZDX-1D220536122023-03-29 11:08:2140.8127-111.95313912857Clb=4.7m/s t=-2.2C h=-1.0% p=-1.0hPa 405.010 MHz Type=DFM17 ser=22053612 Radiosonde
N7ZDX-1D220536122023-03-29 11:07:1840.8021-111.9577672550Clb=6.4m/s t=0.7C h=-1.0% p=-1.0hPa 405.010 MHz Type=DFM17 ser=22053612 Radiosonde
N7ZDX-1D220536122023-03-29 11:06:1740.7916-111.958352702201Clb=4.7m/s t=3.9C h=-1.0% p=-1.0hPa 405.010 MHz Type=DFM17 ser=22053612 Radiosonde
N7ZDX-1D220536122023-03-29 11:05:1640.7819-111.957342591885Clb=4.6m/s t=5.5C h=-1.0% p=-1.0hPa 405.010 MHz Type=DFM17 ser=22053612 Radiosonde